createdAt,value
2017-12-26T00:02:36.412Z,31.40
2017-12-26T00:17:33.840Z,41.93
2017-12-26T00:32:35.044Z,48.07
2017-12-26T00:47:36.483Z,58.83
2017-12-26T01:02:34.645Z,65.60
2017-12-26T01:17:33.785Z,60.17
2017-12-26T01:32:34.780Z,45.27
2017-12-26T01:47:34.697Z,42.80
2017-12-26T02:02:34.362Z,46.20
2017-12-26T02:17:33.996Z,48.03
2017-12-26T02:32:33.504Z,41.03
2017-12-26T02:47:33.851Z,35.43
2017-12-26T03:02:34.556Z,42.37
2017-12-26T03:17:37.201Z,37.73
2017-12-26T03:32:34.130Z,36.77
2017-12-26T03:47:37.120Z,37.43
2017-12-26T04:02:34.714Z,40.80
2017-12-26T04:17:36.995Z,42.00
2017-12-26T04:32:34.568Z,39.83
2017-12-26T04:47:34.371Z,39.57
2017-12-26T05:02:34.914Z,40.23
2017-12-26T05:17:34.820Z,42.53
2017-12-26T05:32:34.613Z,53.80
2017-12-26T05:47:34.537Z,57.97
2017-12-26T06:02:34.171Z,52.73
2017-12-26T06:17:33.880Z,48.73
2017-12-26T06:32:35.011Z,47.60
2017-12-26T06:47:36.452Z,49.40
2017-12-26T07:02:33.674Z,35.93
2017-12-26T07:17:34.230Z,39.10
2017-12-26T07:32:34.165Z,43.97
2017-12-26T07:47:34.217Z,74.67
2017-12-26T08:02:34.526Z,78.77
2017-12-26T08:17:34.498Z,79.00
2017-12-26T08:32:34.248Z,82.57
2017-12-26T08:47:34.167Z,84.60
2017-12-26T09:02:36.566Z,83.60
2017-12-26T09:17:34.503Z,78.63
2017-12-26T09:32:34.442Z,68.20
2017-12-26T09:47:35.170Z,65.40
2017-12-26T10:02:33.868Z,73.97
2017-12-26T10:17:34.279Z,133.30
2017-12-26T10:32:34.933Z,156.40
2017-12-26T10:47:35.373Z,178.67
2017-12-26T11:02:36.109Z,127.20
2017-12-26T11:17:35.209Z,87.17
2017-12-26T11:32:34.075Z,49.30
2017-12-26T11:47:34.576Z,51.70
2017-12-26T12:02:34.731Z,51.40
2017-12-26T12:17:34.170Z,57.77
2017-12-26T12:32:37.164Z,40.57
2017-12-26T12:47:36.534Z,39.27
2017-12-26T13:02:34.562Z,40.10
2017-12-26T13:17:34.417Z,49.43
2017-12-26T13:32:34.384Z,46.93
2017-12-26T13:47:34.794Z,39.50
2017-12-26T14:02:36.725Z,48.73
2017-12-26T14:17:34.752Z,38.07
2017-12-26T14:32:34.590Z,45.90
2017-12-26T14:47:35.054Z,41.50
2017-12-26T15:02:37.027Z,43.00
2017-12-26T15:17:35.958Z,61.60
2017-12-26T15:32:34.920Z,59.73
2017-12-26T15:47:34.224Z,60.00
2017-12-26T16:02:36.354Z,66.17
2017-12-26T16:17:37.139Z,76.83
2017-12-26T16:32:37.087Z,96.67
2017-12-26T16:47:34.478Z,71.53
2017-12-26T17:02:34.639Z,76.43
2017-12-26T17:17:36.330Z,88.40
2017-12-26T17:32:36.314Z,83.23
2017-12-26T17:47:33.511Z,123.73
2017-12-26T18:02:34.638Z,110.70
2017-12-26T18:17:34.602Z,113.60
2017-12-26T18:32:34.350Z,115.43
2017-12-26T18:47:33.809Z,148.63
2017-12-26T19:02:34.165Z,129.83
2017-12-26T19:17:33.886Z,137.43
2017-12-26T19:32:34.110Z,115.73
2017-12-26T19:47:34.230Z,93.00
2017-12-26T20:02:34.409Z,74.00
2017-12-26T20:17:34.548Z,70.47
2017-12-26T20:32:34.084Z,104.90
2017-12-26T20:47:33.786Z,144.50
2017-12-26T21:02:33.930Z,125.53
2017-12-26T21:17:33.568Z,77.07
2017-12-26T21:32:33.599Z,111.07
2017-12-26T21:47:34.873Z,82.40
2017-12-26T22:02:34.842Z,77.07
2017-12-26T22:17:34.574Z,61.50
2017-12-26T22:32:34.738Z,68.97
2017-12-26T22:47:35.084Z,67.43
2017-12-26T23:02:35.025Z,56.30
2017-12-26T23:17:40.940Z,65.70
2017-12-26T23:32:40.486Z,62.40
2017-12-26T23:47:39.106Z,57.67
